Dunbar, United Kingdom
Current Conditions -  °F | °C
As of 6:50 PM on Saturday 25 Oct 2014 (Local Time) from EGQL Reporting Station
Broken Clouds Broken Clouds  
Wind Chill: 52°   Ceiling: 5000
Heat Index: 52°   Visibility: 6mi
Dew Point: 46°   Wind: 26mph
Humidity: 82%   Direction: 250°WSW
Pressure: 29.62"   Gusts: 38mph
Location:  56°N, 2.51°W
Report Text: EGQL 251750Z 25023G33KT 9999 FEW025 BKN050 11/08 Q1003 BLU
Loading
Personal Weather Stations






























Interactive Weather Map New forecast layout! Learn more

10-Day Weather Forecast

Advertisements
Track Severe Weather on mobile